createdAt,value
2016-07-19T00:00:20.656Z,17.82
2016-07-19T00:01:20.638Z,17.85
2016-07-19T00:02:20.627Z,17.81
2016-07-19T00:03:20.618Z,17.74
2016-07-19T00:04:21.310Z,17.74
2016-07-19T00:05:20.597Z,17.69
2016-07-19T00:06:21.998Z,17.63
2016-07-19T00:07:20.579Z,17.57
2016-07-19T00:08:20.600Z,17.54
2016-07-19T00:09:20.567Z,17.57
2016-07-19T00:10:21.261Z,17.51
2016-07-19T00:11:20.538Z,17.51
2016-07-19T00:12:21.237Z,17.55
2016-07-19T00:13:21.228Z,17.5
2016-07-19T00:14:21.925Z,17.46
2016-07-19T00:15:21.207Z,17.43
2016-07-19T00:16:20.488Z,17.51
2016-07-19T00:17:21.897Z,17.5
2016-07-19T00:18:21.174Z,17.48
2016-07-19T00:19:21.169Z,17.53
2016-07-19T00:20:21.914Z,17.44
2016-07-19T00:21:20.454Z,17.46
2016-07-19T00:22:21.149Z,17.35
2016-07-19T00:23:20.477Z,17.36
2016-07-19T00:24:21.128Z,17.4
2016-07-19T00:25:20.452Z,17.41
2016-07-19T00:26:20.396Z,17.33
2016-07-19T00:27:21.095Z,17.36
2016-07-19T00:28:20.423Z,17.35
2016-07-19T00:29:20.366Z,17.29
2016-07-19T00:30:21.771Z,17.33
2016-07-19T00:31:21.056Z,17.23
2016-07-19T00:32:21.758Z,17.23
2016-07-19T00:33:20.331Z,17.23
2016-07-19T00:34:21.029Z,17.18
2016-07-19T00:35:21.217Z,17.18
2016-07-19T00:36:21.729Z,17.17
2016-07-19T00:37:20.998Z,17.08
2016-07-19T00:38:20.988Z,17.15
2016-07-19T00:39:21.691Z,17.13
2016-07-19T00:40:21.678Z,17.18
2016-07-19T00:41:21.008Z,17.1
2016-07-19T00:42:21.671Z,17.14
2016-07-19T00:43:20.242Z,17.08
2016-07-19T00:44:20.976Z,17.17
2016-07-19T00:45:20.925Z,17.1
2016-07-19T00:46:21.618Z,17.1
2016-07-19T00:47:21.610Z,17.1
2016-07-19T00:48:20.944Z,17.08
2016-07-19T00:49:21.590Z,17.13
2016-07-19T00:50:20.874Z,17.08
2016-07-19T00:51:20.161Z,17.07
2016-07-19T00:52:20.146Z,17.08
2016-07-19T00:53:21.551Z,17.03
2016-07-19T00:54:20.124Z,17.03
2016-07-19T00:55:20.821Z,17.06
2016-07-19T00:56:20.812Z,17.06
2016-07-19T00:57:20.809Z,17.04
2016-07-19T00:58:20.794Z,16.98
2016-07-19T00:59:21.489Z,16.92
2016-07-19T01:00:20.777Z,16.95
2016-07-19T01:01:20.060Z,16.9
2016-07-19T01:02:20.754Z,16.9
2016-07-19T01:03:20.041Z,16.93
2016-07-19T01:04:21.449Z,16.81
2016-07-19T01:05:20.018Z,16.89
2016-07-19T01:06:20.011Z,16.85
2016-07-19T01:07:19.999Z,16.8
2016-07-19T01:08:20.038Z,16.86
2016-07-19T01:09:20.685Z,16.78
2016-07-19T01:10:21.381Z,16.78
2016-07-19T01:11:20.664Z,16.78
2016-07-19T01:12:20.659Z,16.77
2016-07-19T01:13:20.642Z,16.73
2016-07-19T01:14:21.355Z,16.89
2016-07-19T01:15:20.627Z,16.85
2016-07-19T01:16:20.619Z,16.71
2016-07-19T01:17:21.313Z,16.71
2016-07-19T01:18:19.884Z,16.67
2016-07-19T01:19:19.879Z,16.55
2016-07-19T01:20:20.576Z,16.6
2016-07-19T01:21:21.277Z,16.5
2016-07-19T01:22:19.849Z,16.42
2016-07-19T01:23:20.543Z,16.49
2016-07-19T01:24:20.543Z,16.44
2016-07-19T01:25:20.534Z,16.34
2016-07-19T01:26:19.806Z,16.41
2016-07-19T01:27:20.505Z,16.33
2016-07-19T01:28:21.200Z,16.33
2016-07-19T01:29:19.777Z,16.34
2016-07-19T01:30:19.774Z,16.3
2016-07-19T01:31:20.469Z,16.33
2016-07-19T01:32:20.468Z,16.3
2016-07-19T01:33:20.447Z,16.35
2016-07-19T01:34:19.787Z,16.34
2016-07-19T01:35:20.429Z,16.27
2016-07-19T01:36:20.415Z,16.31
2016-07-19T01:37:19.699Z,16.26
2016-07-19T01:38:20.401Z,16.31
2016-07-19T01:39:19.675Z,16.35
2016-07-19T01:40:21.082Z,16.33
2016-07-19T01:41:19.658Z,16.26
2016-07-19T01:42:19.648Z,16.26
2016-07-19T01:43:20.346Z,16.15
2016-07-19T01:44:19.656Z,16.18
2016-07-19T01:45:20.331Z,16.22
2016-07-19T01:46:21.073Z,16.14
2016-07-19T01:47:20.304Z,16.14
2016-07-19T01:48:19.610Z,16.16
2016-07-19T01:49:20.285Z,16.15
2016-07-19T01:50:19.570Z,16.15
2016-07-19T01:51:19.553Z,16.14
2016-07-19T01:52:20.251Z,16.12
2016-07-19T01:53:20.238Z,16.09
2016-07-19T01:54:20.938Z,16.11
2016-07-19T01:55:20.272Z,16.18
2016-07-19T01:56:20.212Z,16.15
2016-07-19T01:57:20.203Z,16.04
2016-07-19T01:58:20.191Z,16.09
2016-07-19T01:59:19.478Z,16.11
2016-07-19T02:00:20.181Z,16.09
2016-07-19T02:01:20.867Z,16.04
2016-07-19T02:02:20.152Z,16.04
2016-07-19T02:03:19.433Z,16.04
2016-07-19T02:04:20.831Z,16.06
2016-07-19T02:05:19.412Z,15.97
2016-07-19T02:06:19.406Z,16
2016-07-19T02:07:20.100Z,15.93
2016-07-19T02:08:20.089Z,16.04
2016-07-19T02:09:19.371Z,15.94
2016-07-19T02:10:19.356Z,15.92
2016-07-19T02:11:20.054Z,15.93
2016-07-19T02:12:19.339Z,15.93
2016-07-19T02:13:20.041Z,15.86
2016-07-19T02:14:19.316Z,15.89
2016-07-19T02:15:19.305Z,15.88
2016-07-19T02:16:20.722Z,15.94
2016-07-19T02:17:19.289Z,15.82
2016-07-19T02:18:19.985Z,15.86
2016-07-19T02:19:19.980Z,15.78
2016-07-19T02:20:20.671Z,15.85
2016-07-19T02:21:19.248Z,15.68
2016-07-19T02:22:19.939Z,15.79
2016-07-19T02:23:19.932Z,15.67
2016-07-19T02:24:19.921Z,15.72
2016-07-19T02:25:19.201Z,15.67
2016-07-19T02:26:19.900Z,15.68
2016-07-19T02:27:20.595Z,15.63
2016-07-19T02:28:20.587Z,15.63
2016-07-19T02:29:19.874Z,15.63
2016-07-19T02:30:19.854Z,15.66
2016-07-19T02:31:19.138Z,15.54
2016-07-19T02:32:19.890Z,15.56
2016-07-19T02:33:19.827Z,15.6
2016-07-19T02:34:19.113Z,15.52
2016-07-19T02:35:20.004Z,15.52
2016-07-19T02:36:19.795Z,15.56
2016-07-19T02:37:19.778Z,15.49
2016-07-19T02:38:19.064Z,15.42
2016-07-19T02:39:19.762Z,15.46
2016-07-19T02:40:20.462Z,15.46
2016-07-19T02:41:19.029Z,15.49
2016-07-19T02:42:19.029Z,15.42
2016-07-19T02:43:19.728Z,15.41
2016-07-19T02:44:19.714Z,15.45
2016-07-19T02:45:19.700Z,15.48
2016-07-19T02:46:19.695Z,15.38
2016-07-19T02:47:18.969Z,15.41
2016-07-19T02:48:20.371Z,15.41
2016-07-19T02:49:19.655Z,15.39
2016-07-19T02:50:19.645Z,15.38
2016-07-19T02:51:19.633Z,15.41
2016-07-19T02:52:19.631Z,15.31
2016-07-19T02:53:19.614Z,15.3
2016-07-19T02:54:18.894Z,15.36
2016-07-19T02:55:18.883Z,15.39
2016-07-19T02:56:20.292Z,15.24
2016-07-19T02:57:19.575Z,15.27
2016-07-19T02:58:19.561Z,15.3
2016-07-19T02:59:18.888Z,15.3
2016-07-19T03:00:18.839Z,15.26
2016-07-19T03:01:18.821Z,15.26
2016-07-19T03:02:19.515Z,15.26
2016-07-19T03:03:19.502Z,15.09
2016-07-19T03:04:20.218Z,15.12
2016-07-19T03:05:18.776Z,15.12
2016-07-19T03:06:20.190Z,15.09
2016-07-19T03:07:19.481Z,15.13
2016-07-19T03:08:19.483Z,15.08
2016-07-19T03:09:19.442Z,15.05
2016-07-19T03:10:19.426Z,15.03
2016-07-19T03:11:19.420Z,15.02
2016-07-19T03:12:20.112Z,15.11
2016-07-19T03:13:19.399Z,15.06
2016-07-19T03:14:20.092Z,15.03
2016-07-19T03:15:19.377Z,15.03
2016-07-19T03:16:18.657Z,15.06
2016-07-19T03:17:20.062Z,14.99
2016-07-19T03:18:19.342Z,14.98
2016-07-19T03:19:20.041Z,14.95
2016-07-19T03:20:19.321Z,15.02
2016-07-19T03:21:19.311Z,14.93
2016-07-19T03:22:20.009Z,14.95
2016-07-19T03:23:19.993Z,14.91
2016-07-19T03:24:19.277Z,14.95
2016-07-19T03:25:18.557Z,14.8
2016-07-19T03:26:18.546Z,14.83
2016-07-19T03:27:18.568Z,14.84
2016-07-19T03:28:18.525Z,14.83
2016-07-19T03:29:19.927Z,14.78
2016-07-19T03:30:18.507Z,14.75
2016-07-19T03:31:19.206Z,14.75
2016-07-19T03:32:18.481Z,14.8
2016-07-19T03:33:18.469Z,14.78
2016-07-19T03:34:18.456Z,14.8
2016-07-19T03:35:19.159Z,14.78
2016-07-19T03:36:19.147Z,14.78
2016-07-19T03:37:19.134Z,14.8
2016-07-19T03:38:19.119Z,14.81
2016-07-19T03:39:18.403Z,14.81
2016-07-19T03:40:19.809Z,14.81
2016-07-19T03:41:19.087Z,14.8
2016-07-19T03:42:18.371Z,14.78
2016-07-19T03:43:18.357Z,14.75
2016-07-19T03:44:18.351Z,14.8
2016-07-19T03:45:19.752Z,14.78
2016-07-19T03:46:18.326Z,14.88
2016-07-19T03:47:18.320Z,14.75
2016-07-19T03:48:18.301Z,14.74
2016-07-19T03:49:18.343Z,14.84
2016-07-19T03:50:18.993Z,14.75
2016-07-19T03:51:18.984Z,14.74
2016-07-19T03:52:19.674Z,14.78
2016-07-19T03:53:18.969Z,14.78
2016-07-19T03:54:18.944Z,14.83
2016-07-19T03:55:18.930Z,14.72
2016-07-19T03:56:18.217Z,14.86
2016-07-19T03:57:18.965Z,14.78
2016-07-19T03:58:19.606Z,14.81
2016-07-19T03:59:18.184Z,14.78
2016-07-19T04:00:18.174Z,14.78
2016-07-19T04:01:18.163Z,14.83
2016-07-19T04:02:18.146Z,14.9
2016-07-19T04:03:18.844Z,14.74
2016-07-19T04:04:18.830Z,14.86
2016-07-19T04:05:18.823Z,14.8
2016-07-19T04:06:19.514Z,14.84
2016-07-19T04:07:18.803Z,14.9
2016-07-19T04:08:19.503Z,14.87
2016-07-19T04:09:18.782Z,14.93
2016-07-19T04:10:18.767Z,14.87
2016-07-19T04:11:18.054Z,14.81
2016-07-19T04:12:18.746Z,14.84
2016-07-19T04:13:18.025Z,14.81
2016-07-19T04:14:18.017Z,14.81
2016-07-19T04:15:18.710Z,14.93
2016-07-19T04:16:18.702Z,14.93
2016-07-19T04:17:17.985Z,14.87
2016-07-19T04:18:18.678Z,14.95
2016-07-19T04:19:18.677Z,14.94
2016-07-19T04:20:18.660Z,14.94
2016-07-19T04:21:19.356Z,14.93
2016-07-19T04:22:18.635Z,14.93
2016-07-19T04:23:18.629Z,15.02
2016-07-19T04:24:17.907Z,15.03
2016-07-19T04:25:17.894Z,14.99
2016-07-19T04:26:18.592Z,15.02
2016-07-19T04:27:18.631Z,14.98
2016-07-19T04:28:19.276Z,14.94
2016-07-19T04:29:18.558Z,15.02
2016-07-19T04:30:17.839Z,14.99
2016-07-19T04:31:17.834Z,15.03
2016-07-19T04:32:17.815Z,15.11
2016-07-19T04:33:19.224Z,15.13
2016-07-19T04:34:18.511Z,15.12
2016-07-19T04:35:18.694Z,15.13
2016-07-19T04:36:17.777Z,15.09
2016-07-19T04:37:19.178Z,15.05
2016-07-19T04:38:18.471Z,15.11
2016-07-19T04:39:18.449Z,15.2
2016-07-19T04:40:17.733Z,15.2
2016-07-19T04:41:17.721Z,15.19
2016-07-19T04:42:17.712Z,15.24
2016-07-19T04:43:18.406Z,15.28
2016-07-19T04:44:18.396Z,15.28
2016-07-19T04:45:17.683Z,15.28
2016-07-19T04:46:17.716Z,15.2
2016-07-19T04:47:19.293Z,15.26
2016-07-19T04:48:18.364Z,15.35
2016-07-19T04:49:19.052Z,15.33
2016-07-19T04:50:17.624Z,15.33
2016-07-19T04:51:18.322Z,15.33
2016-07-19T04:52:17.606Z,15.39
2016-07-19T04:53:18.299Z,15.43
2016-07-19T04:54:17.580Z,15.39
2016-07-19T04:55:18.279Z,15.42
2016-07-19T04:56:17.560Z,15.45
2016-07-19T04:57:18.252Z,15.49
2016-07-19T04:58:18.246Z,15.45
2016-07-19T04:59:18.940Z,15.48
2016-07-19T05:00:17.540Z,15.46
2016-07-19T05:01:18.213Z,15.51
2016-07-19T05:02:17.513Z,15.49
2016-07-19T05:03:18.193Z,15.49
2016-07-19T05:04:17.476Z,15.59
2016-07-19T05:05:17.462Z,15.67
2016-07-19T05:06:18.875Z,15.56
2016-07-19T05:07:18.200Z,15.66
2016-07-19T05:08:17.438Z,15.63
2016-07-19T05:09:18.126Z,15.64
2016-07-19T05:10:18.119Z,15.74
2016-07-19T05:11:18.108Z,15.81
2016-07-19T05:12:18.800Z,15.78
2016-07-19T05:13:18.097Z,15.82
2016-07-19T05:14:17.374Z,15.89
2016-07-19T05:15:18.771Z,15.85
2016-07-19T05:16:18.057Z,15.93
2016-07-19T05:17:18.046Z,15.94
2016-07-19T05:18:18.041Z,15.97
2016-07-19T05:19:17.313Z,16.07
2016-07-19T05:20:17.302Z,16.04
2016-07-19T05:21:17.294Z,16.09
2016-07-19T05:22:17.990Z,16.18
2016-07-19T05:23:17.271Z,16.23
2016-07-19T05:24:18.676Z,16.18
2016-07-19T05:25:17.250Z,16.23
2016-07-19T05:26:18.667Z,16.25
2016-07-19T05:27:17.938Z,16.31
2016-07-19T05:28:17.930Z,16.27
2016-07-19T05:29:17.921Z,16.37
2016-07-19T05:30:17.962Z,16.41
2016-07-19T05:31:17.894Z,16.5
2016-07-19T05:32:17.181Z,16.45
2016-07-19T05:33:17.878Z,16.49
2016-07-19T05:34:17.159Z,16.56
2016-07-19T05:35:17.150Z,16.65
2016-07-19T05:36:18.553Z,16.62
2016-07-19T05:37:17.123Z,16.59
2016-07-19T05:38:17.832Z,16.71
2016-07-19T05:39:17.111Z,16.81
2016-07-19T05:40:17.801Z,16.83
2016-07-19T05:41:17.089Z,16.78
2016-07-19T05:42:17.796Z,16.81
2016-07-19T05:43:17.776Z,16.88
2016-07-19T05:44:17.764Z,16.89
2016-07-19T05:45:17.751Z,16.96
2016-07-19T05:46:18.453Z,16.93
2016-07-19T05:47:17.732Z,17.06
2016-07-19T05:48:17.018Z,17
2016-07-19T05:49:17.007Z,17.08
2016-07-19T05:50:17.753Z,17.17
2016-07-19T05:51:17.697Z,17.2
2016-07-19T05:52:17.683Z,17.23
2016-07-19T05:53:16.978Z,17.28
2016-07-19T05:54:16.956Z,17.33
2016-07-19T05:55:16.952Z,17.36
2016-07-19T05:56:17.644Z,17.36
2016-07-19T05:57:16.926Z,17.53
2016-07-19T05:58:17.629Z,17.48
2016-07-19T05:59:17.613Z,17.5
2016-07-19T06:00:17.611Z,17.5
2016-07-19T06:01:17.602Z,17.64
2016-07-19T06:02:18.294Z,17.59
2016-07-19T06:03:16.876Z,17.74
2016-07-19T06:04:17.571Z,17.78
2016-07-19T06:05:17.580Z,17.87
2016-07-19T06:06:16.849Z,17.87
2016-07-19T06:07:17.550Z,17.89
2016-07-19T06:08:18.289Z,17.94
2016-07-19T06:09:18.229Z,18.09
2016-07-19T06:10:18.224Z,18.13
2016-07-19T06:11:16.796Z,18.07
2016-07-19T06:12:16.789Z,18.18
2016-07-19T06:13:17.486Z,18.21
2016-07-19T06:14:17.486Z,18.28
2016-07-19T06:15:16.758Z,18.29
2016-07-19T06:16:16.745Z,18.34
2016-07-19T06:17:16.738Z,18.46
2016-07-19T06:18:16.729Z,18.43
2016-07-19T06:19:16.720Z,18.52
2016-07-19T06:20:16.710Z,18.55
2016-07-19T06:21:16.702Z,18.67
2016-07-19T06:22:17.451Z,18.62
2016-07-19T06:23:16.685Z,18.62
2016-07-19T06:24:17.410Z,18.67
2016-07-19T06:25:17.374Z,18.77
2016-07-19T06:26:16.664Z,18.79
2016-07-19T06:27:17.370Z,18.86
2016-07-19T06:28:17.373Z,18.82
2016-07-19T06:29:17.335Z,18.84
2016-07-19T06:30:17.329Z,18.84
2016-07-19T06:31:17.319Z,18.94
2016-07-19T06:32:17.309Z,19.02
2016-07-19T06:33:16.594Z,19.02
2016-07-19T06:34:17.999Z,19.13
2016-07-19T06:35:18.195Z,19.28
2016-07-19T06:36:17.272Z,19.15
2016-07-19T06:37:16.572Z,19.25
2016-07-19T06:38:16.551Z,19.31
2016-07-19T06:39:17.261Z,19.32
2016-07-19T06:40:16.531Z,19.33
2016-07-19T06:41:16.534Z,19.46
2016-07-19T06:42:17.217Z,19.38
2016-07-19T06:43:16.509Z,19.54
2016-07-19T06:44:17.918Z,19.53
2016-07-19T06:45:17.196Z,19.54
2016-07-19T06:46:17.185Z,19.68
2016-07-19T06:47:16.469Z,19.65
2016-07-19T06:48:16.462Z,19.63
2016-07-19T06:49:16.452Z,19.68
2016-07-19T06:50:17.151Z,19.79
2016-07-19T06:51:17.219Z,19.8
2016-07-19T06:52:17.138Z,19.88
2016-07-19T06:53:16.417Z,19.9
2016-07-19T06:54:16.424Z,20
2016-07-19T06:55:17.119Z,20.05
2016-07-19T06:56:16.396Z,20.16
2016-07-19T06:57:16.385Z,20.15
2016-07-19T06:58:17.133Z,20.23
2016-07-19T06:59:17.093Z,20.3
2016-07-19T07:00:16.357Z,20.41
2016-07-19T07:01:17.766Z,20.35
2016-07-19T07:02:16.342Z,20.41
2016-07-19T07:03:17.039Z,20.49
2016-07-19T07:04:16.336Z,20.46
2016-07-19T07:05:17.025Z,20.51
2016-07-19T07:06:17.011Z,20.54
2016-07-19T07:07:16.302Z,20.58
2016-07-19T07:08:17.703Z,20.59
2016-07-19T07:09:17.696Z,20.71
2016-07-19T07:10:16.986Z,20.66
2016-07-19T07:11:16.975Z,20.65
2016-07-19T07:12:16.264Z,20.8
2016-07-19T07:13:16.254Z,20.79
2016-07-19T07:14:16.239Z,20.79
2016-07-19T07:15:17.654Z,20.89
2016-07-19T07:16:16.229Z,20.95
2016-07-19T07:17:16.222Z,20.93
2016-07-19T07:18:16.212Z,20.98
2016-07-19T07:19:16.917Z,21.08
2016-07-19T07:20:17.613Z,21.08
2016-07-19T07:21:16.908Z,21.24
2016-07-19T07:22:16.891Z,21.32
2016-07-19T07:23:17.589Z,21.34
2016-07-19T07:24:16.873Z,21.38
2016-07-19T07:25:16.155Z,21.38
2016-07-19T07:26:16.854Z,21.53
2016-07-19T07:27:16.848Z,21.46
2016-07-19T07:28:17.554Z,21.51
2016-07-19T07:29:16.121Z,21.57
2016-07-19T07:30:16.824Z,21.6
2016-07-19T07:31:16.817Z,21.67
2016-07-19T07:32:16.096Z,21.71
2016-07-19T07:33:16.804Z,21.75
2016-07-19T07:34:16.788Z,21.72
2016-07-19T07:35:16.783Z,21.81
2016-07-19T07:36:17.488Z,21.88
2016-07-19T07:37:17.477Z,22.28
2016-07-19T07:38:16.762Z,23.22
2016-07-19T07:39:17.460Z,24
2016-07-19T07:40:16.046Z,24.73
2016-07-19T07:41:16.749Z,25.35
2016-07-19T07:42:16.738Z,25.93
2016-07-19T07:43:16.023Z,26.52
2016-07-19T07:44:17.439Z,26.87
2016-07-19T07:45:16.718Z,27.24
2016-07-19T07:46:16.717Z,27.41
2016-07-19T07:47:16.005Z,27.69
2016-07-19T07:48:16.705Z,27.85
2016-07-19T07:49:17.409Z,27.98
2016-07-19T07:50:15.991Z,28.22
2016-07-19T07:51:16.693Z,28.59
2016-07-19T07:52:15.979Z,28.87
2016-07-19T07:53:15.980Z,29.29
2016-07-19T07:54:16.685Z,29.68
2016-07-19T07:55:16.680Z,30.12
2016-07-19T07:56:17.404Z,30.65
2016-07-19T07:57:16.677Z,31.06
2016-07-19T07:58:16.674Z,31.33
2016-07-19T07:59:15.973Z,31.64
2016-07-19T08:00:16.671Z,32.05
2016-07-19T08:01:15.967Z,32.24
2016-07-19T08:02:17.381Z,32.51
2016-07-19T08:03:15.960Z,32.81
2016-07-19T08:04:15.961Z,33.14
2016-07-19T08:05:15.969Z,33.34
2016-07-19T08:06:16.683Z,33.6
2016-07-19T08:07:15.953Z,33.94
2016-07-19T08:08:15.961Z,34.08
2016-07-19T08:09:17.384Z,34.29
2016-07-19T08:10:17.383Z,34.31
2016-07-19T08:11:17.375Z,34.54
2016-07-19T08:12:17.381Z,34.76
2016-07-19T08:13:16.665Z,34.83
2016-07-19T08:14:17.383Z,35.02
2016-07-19T08:15:16.018Z,34.98
2016-07-19T08:16:17.386Z,35.06
2016-07-19T08:17:15.960Z,35.13
2016-07-19T08:18:16.667Z,35.1
2016-07-19T08:19:15.960Z,35.15
2016-07-19T08:20:16.671Z,35.42
2016-07-19T08:21:16.672Z,35.48
2016-07-19T08:22:15.964Z,35.63
2016-07-19T08:23:16.675Z,35.74
2016-07-19T08:24:15.968Z,35.82
2016-07-19T08:25:16.682Z,35.81
2016-07-19T08:26:15.971Z,35.81
2016-07-19T08:27:16.685Z,35.99
2016-07-19T08:28:15.972Z,36.08
2016-07-19T08:29:15.979Z,36.15
2016-07-19T08:30:15.978Z,36.35
2016-07-19T08:31:15.987Z,36.49
2016-07-19T08:32:15.980Z,36.56
2016-07-19T08:33:16.691Z,36.48
2016-07-19T08:34:15.988Z,36.58
2016-07-19T08:35:16.196Z,36.57
2016-07-19T08:36:15.987Z,36.48
2016-07-19T08:37:16.700Z,36.54
2016-07-19T08:38:15.997Z,36.67
2016-07-19T08:39:17.413Z,36.9
2016-07-19T08:40:16.705Z,36.95
2016-07-19T08:41:17.420Z,37.01
2016-07-19T08:42:16.010Z,37.05
2016-07-19T08:43:16.302Z,37.23
2016-07-19T08:44:17.431Z,37.21
2016-07-19T08:45:16.016Z,37.36
2016-07-19T08:46:16.735Z,37.38
2016-07-19T08:47:16.019Z,37.24
2016-07-19T08:48:16.022Z,36.98
2016-07-19T08:49:17.442Z,36.79
2016-07-19T08:50:16.739Z,36.41
2016-07-19T08:51:16.748Z,35.74
2016-07-19T08:52:16.031Z,35.21
2016-07-19T08:53:16.750Z,34.61
2016-07-19T08:54:16.042Z,34.17
2016-07-19T08:55:16.039Z,33.68
2016-07-19T08:56:17.574Z,33.3
2016-07-19T08:57:17.473Z,32.96
2016-07-19T08:58:16.755Z,32.7
2016-07-19T08:59:16.061Z,32.59
2016-07-19T09:00:16.764Z,32.4
2016-07-19T09:01:17.470Z,32.03
2016-07-19T09:02:16.049Z,31.8
2016-07-19T09:03:16.758Z,31.73
2016-07-19T09:04:16.059Z,31.72
2016-07-19T09:05:16.074Z,31.48
2016-07-19T09:06:16.762Z,31.13
2016-07-19T09:07:16.061Z,31.01
2016-07-19T09:08:17.475Z,30.62
2016-07-19T09:09:16.054Z,30.38
2016-07-19T09:10:16.058Z,30.29
2016-07-19T09:11:16.815Z,30.05
2016-07-19T09:12:16.785Z,29.97
2016-07-19T09:13:16.765Z,30.05
2016-07-19T09:14:16.070Z,30.19
2016-07-19T09:15:17.460Z,30.08
2016-07-19T09:16:16.051Z,29.96
2016-07-19T09:17:16.050Z,29.84
2016-07-19T09:18:16.754Z,29.63
2016-07-19T09:19:17.460Z,29.62
2016-07-19T09:20:16.046Z,29.55
2016-07-19T09:21:16.044Z,29.37
2016-07-19T09:22:16.743Z,29.2
2016-07-19T09:23:16.036Z,29
2016-07-19T09:24:16.042Z,28.93
2016-07-19T09:25:16.040Z,29.06
2016-07-19T09:26:16.739Z,29.23
2016-07-19T09:27:16.749Z,29.7
2016-07-19T09:28:16.739Z,30.21
2016-07-19T09:29:16.032Z,30.78
2016-07-19T09:30:16.033Z,30.94
2016-07-19T09:31:16.032Z,31.04
2016-07-19T09:32:17.444Z,30.87
2016-07-19T09:33:16.740Z,30.8
2016-07-19T09:34:16.742Z,30.57
2016-07-19T09:35:16.031Z,30.4
2016-07-19T09:36:16.744Z,30.52
2016-07-19T09:37:16.753Z,30.53
2016-07-19T09:38:17.453Z,30.71
2016-07-19T09:39:16.739Z,31.08
2016-07-19T09:40:16.741Z,31.57
2016-07-19T09:41:16.738Z,31.73
2016-07-19T09:42:16.044Z,31.96
2016-07-19T09:43:16.742Z,31.92
2016-07-19T09:44:16.741Z,32
2016-07-19T09:45:16.744Z,32.03
2016-07-19T09:46:17.460Z,32.03
2016-07-19T09:47:16.747Z,32
2016-07-19T09:48:16.034Z,31.93
2016-07-19T09:49:16.750Z,31.92
2016-07-19T09:50:16.753Z,31.93
2016-07-19T09:51:16.752Z,31.99
2016-07-19T09:52:16.747Z,31.88
2016-07-19T09:53:16.045Z,31.79
2016-07-19T09:54:16.041Z,31.67
2016-07-19T09:55:16.748Z,31.58
2016-07-19T09:56:16.045Z,31.54
2016-07-19T09:57:16.045Z,31.55
2016-07-19T09:58:16.758Z,31.38
2016-07-19T09:59:16.754Z,31.2
2016-07-19T10:00:16.753Z,31.12
2016-07-19T10:01:17.456Z,30.98
2016-07-19T10:02:17.461Z,30.72
2016-07-19T10:03:16.752Z,30.68
2016-07-19T10:04:17.456Z,30.54
2016-07-19T10:05:16.048Z,30.62
2016-07-19T10:06:17.451Z,30.56
2016-07-19T10:07:16.747Z,30.59
2016-07-19T10:08:16.742Z,30.57
2016-07-19T10:09:16.746Z,30.53
2016-07-19T10:10:16.743Z,30.38
2016-07-19T10:11:16.037Z,30.43
2016-07-19T10:12:16.032Z,30.4
2016-07-19T10:13:16.742Z,30.46
2016-07-19T10:14:16.032Z,30.61
2016-07-19T10:15:16.038Z,30.64
2016-07-19T10:16:16.039Z,30.74
2016-07-19T10:17:16.028Z,31.06
2016-07-19T10:18:17.440Z,31.7
2016-07-19T10:19:17.439Z,32.18
2016-07-19T10:20:16.733Z,32.74
2016-07-19T10:21:16.732Z,33.11
2016-07-19T10:22:16.029Z,33.42
2016-07-19T10:23:16.737Z,33.63
2016-07-19T10:24:16.742Z,33.74
2016-07-19T10:25:16.754Z,33.78
2016-07-19T10:26:16.740Z,33.68
2016-07-19T10:27:16.032Z,33.46
2016-07-19T10:28:16.743Z,33.39
2016-07-19T10:29:16.750Z,33.42
2016-07-19T10:30:16.039Z,33.31
2016-07-19T10:31:16.760Z,33.52
2016-07-19T10:32:16.057Z,33.87
2016-07-19T10:33:16.752Z,34.04
2016-07-19T10:34:16.756Z,34.44
2016-07-19T10:35:17.000Z,34.63
2016-07-19T10:36:16.056Z,34.94
2016-07-19T10:37:16.767Z,35.07
2016-07-19T10:38:16.770Z,35.29
2016-07-19T10:39:16.068Z,35.45
2016-07-19T10:40:16.070Z,35.64
2016-07-19T10:41:17.499Z,35.85
2016-07-19T10:42:16.092Z,35.97
2016-07-19T10:43:16.083Z,36.06
2016-07-19T10:44:16.796Z,36.36
2016-07-19T10:45:16.796Z,36.46
2016-07-19T10:46:16.102Z,36.72
2016-07-19T10:47:16.810Z,36.85
2016-07-19T10:48:16.816Z,36.98
2016-07-19T10:49:17.526Z,37.02
2016-07-19T10:50:16.827Z,37.09
2016-07-19T10:51:17.542Z,37.24
2016-07-19T10:52:16.129Z,37.42
2016-07-19T10:53:16.839Z,37.61
2016-07-19T10:54:17.553Z,37.38
2016-07-19T10:55:16.144Z,37.55
2016-07-19T10:56:17.563Z,37.66
2016-07-19T10:57:16.159Z,37.64
2016-07-19T10:58:16.870Z,37.64
2016-07-19T10:59:16.876Z,37.81
2016-07-19T11:00:17.601Z,37.88
2016-07-19T11:01:16.183Z,37.88
2016-07-19T11:02:16.900Z,37.92
2016-07-19T11:03:16.900Z,38.11
2016-07-19T11:04:16.200Z,38.04
2016-07-19T11:05:16.919Z,37.95
2016-07-19T11:06:16.217Z,37.96
2016-07-19T11:07:16.924Z,37.92
2016-07-19T11:08:16.938Z,37.76
2016-07-19T11:09:16.235Z,37.64
2016-07-19T11:10:16.947Z,37.68
2016-07-19T11:11:16.245Z,37.67
2016-07-19T11:12:16.257Z,37.64
2016-07-19T11:13:17.673Z,37.73
2016-07-19T11:14:17.679Z,37.78
2016-07-19T11:15:16.277Z,37.89
2016-07-19T11:16:16.987Z,37.9
2016-07-19T11:17:16.990Z,37.98
2016-07-19T11:18:16.996Z,37.89
2016-07-19T11:19:17.004Z,37.8
2016-07-19T11:20:17.715Z,37.78
2016-07-19T11:21:17.017Z,37.81
2016-07-19T11:22:17.021Z,37.8
2016-07-19T11:23:16.320Z,37.81
2016-07-19T11:24:17.740Z,37.89
2016-07-19T11:25:16.333Z,38.04
2016-07-19T11:26:17.758Z,38.08
2016-07-19T11:27:17.049Z,37.95
2016-07-19T11:28:16.362Z,38.1
2016-07-19T11:29:16.362Z,38.11
2016-07-19T11:30:16.366Z,38.01
2016-07-19T11:31:17.084Z,37.74
2016-07-19T11:32:17.089Z,37.78
2016-07-19T11:33:16.388Z,37.67
2016-07-19T11:34:17.113Z,37.61
2016-07-19T11:35:17.115Z,37.64
2016-07-19T11:36:17.122Z,37.64
2016-07-19T11:37:17.344Z,37.56
2016-07-19T11:38:17.847Z,37.74
2016-07-19T11:39:17.844Z,37.85
2016-07-19T11:40:16.441Z,38.01
2016-07-19T11:41:16.446Z,38.05
2016-07-19T11:42:17.160Z,38.15
2016-07-19T11:43:17.877Z,38.29
2016-07-19T11:44:17.896Z,38.26
2016-07-19T11:45:17.180Z,38.18
2016-07-19T11:46:16.484Z,38.22
2016-07-19T11:47:16.483Z,38.38
2016-07-19T11:48:17.204Z,38.33
2016-07-19T11:49:17.222Z,38.45
2016-07-19T11:50:17.922Z,38.66
2016-07-19T11:51:17.226Z,38.86
2016-07-19T11:52:17.230Z,39.03
2016-07-19T11:53:17.945Z,39.09
2016-07-19T11:54:17.952Z,39.17
2016-07-19T11:55:17.258Z,39.18
2016-07-19T11:56:17.259Z,39.32
2016-07-19T11:57:17.977Z,39.24
2016-07-19T11:58:17.272Z,39.33
2016-07-19T11:59:16.572Z,39.21
2016-07-19T12:00:17.286Z,39.25
2016-07-19T12:01:17.293Z,39.36
2016-07-19T12:02:17.302Z,39.2
2016-07-19T12:03:17.310Z,39.28
2016-07-19T12:04:18.020Z,39.47
2016-07-19T12:05:18.035Z,39.59
2016-07-19T12:06:18.056Z,39.76
2016-07-19T12:07:17.340Z,39.84
2016-07-19T12:08:17.395Z,39.77
2016-07-19T12:09:16.660Z,39.77
2016-07-19T12:10:17.370Z,39.67
2016-07-19T12:11:17.378Z,39.56
2016-07-19T12:12:18.110Z,39.56
2016-07-19T12:13:17.409Z,39.54
2016-07-19T12:14:17.392Z,39.56
2016-07-19T12:15:16.700Z,39.73
2016-07-19T12:16:17.414Z,39.77
2016-07-19T12:17:16.727Z,39.98
2016-07-19T12:18:16.721Z,39.78
2016-07-19T12:19:16.723Z,39.69
2016-07-19T12:20:16.733Z,39.69
2016-07-19T12:21:16.740Z,39.55
2016-07-19T12:22:16.744Z,39.73
2016-07-19T12:23:18.166Z,39.83
2016-07-19T12:24:16.766Z,40
2016-07-19T12:25:16.799Z,39.9
2016-07-19T12:26:17.505Z,39.84
2016-07-19T12:27:16.787Z,40.05
2016-07-19T12:28:17.523Z,40.07
2016-07-19T12:29:17.521Z,40.08
2016-07-19T12:30:18.227Z,39.96
2016-07-19T12:31:18.237Z,40
2016-07-19T12:32:17.531Z,40.07
2016-07-19T12:33:17.537Z,40.11
2016-07-19T12:34:17.605Z,40.04
2016-07-19T12:35:18.272Z,40.24
2016-07-19T12:36:17.557Z,40.38
2016-07-19T12:37:16.850Z,40.4
2016-07-19T12:38:18.274Z,40.34
2016-07-19T12:39:17.576Z,40.1
2016-07-19T12:40:18.293Z,40.36
2016-07-19T12:41:17.590Z,40.5
2016-07-19T12:42:16.903Z,40.68
2016-07-19T12:43:18.317Z,40.5
2016-07-19T12:44:16.908Z,40.29
2016-07-19T12:45:17.627Z,40.32
2016-07-19T12:46:18.342Z,40.45
2016-07-19T12:47:17.638Z,40.38
2016-07-19T12:48:17.648Z,40.26
2016-07-19T12:49:17.659Z,40.26
2016-07-19T12:50:17.670Z,40.29
2016-07-19T12:51:16.963Z,40.07
2016-07-19T12:52:17.685Z,39.86
2016-07-19T12:53:17.033Z,39.88
2016-07-19T12:54:17.694Z,39.88
2016-07-19T12:55:16.995Z,40.05